Time;durP1;ratioP1;P1;durP2;ratioP2;P2;SDS_P1;SDS_P2;PMS_P1;PMS_P2;Temp;Humidity;BMP_temperature;BMP_pressure;BME280_temperature;BME280_humidity;BME280_pressure;Samples;Min_cycle;Max_cycle;Signal;HPM_P1;HPM_P2
2023/12/31 00:01:48;;;;;;;5.63;2.97;;;;;;;;;;5103045;28;20043;-64
2023/12/31 00:04:14;;;;;;;5.47;3.15;;;;;;;;;;5110259;28;20040;-64
2023/12/31 00:06:40;;;;;;;3.55;2.35;;;;;;;;;;5109246;28;20401;-64
2023/12/31 00:09:06;;;;;;;5.65;2.42;;;;;;;;;;5110954;28;20040;-64
2023/12/31 00:11:32;;;;;;;5.03;2.60;;;;;;;;;;5110610;28;20036;-64
2023/12/31 00:13:58;;;;;;;5.13;2.92;;;;;;;;;;5111029;28;20039;-64
2023/12/31 00:16:24;;;;;;;7.70;2.70;;;;;;;;;;5109149;28;20034;-64
2023/12/31 00:18:50;;;;;;;6.95;2.65;;;;;;;;;;5099352;28;20047;-64
2023/12/31 00:21:16;;;;;;;6.07;2.80;;;;;;;;;;5095803;28;20028;-64
2023/12/31 00:23:42;;;;;;;5.68;2.90;;;;;;;;;;5110679;28;20039;-64
2023/12/31 00:26:08;;;;;;;6.43;2.75;;;;;;;;;;5102292;28;20051;-64
2023/12/31 00:28:34;;;;;;;5.75;2.65;;;;;;;;;;5091187;28;20044;-64
2023/12/31 00:31:01;;;;;;;8.00;3.08;;;;;;;;;;5091457;28;20040;-64
2023/12/31 00:33:26;;;;;;;5.25;3.10;;;;;;;;;;5091122;28;20036;-64
2023/12/31 00:35:53;;;;;;;5.90;3.17;;;;;;;;;;5110401;28;20587;-64
2023/12/31 00:38:19;;;;;;;8.45;3.20;;;;;;;;;;5111569;28;20057;-64
2023/12/31 00:40:45;;;;;;;5.72;3.20;;;;;;;;;;5111149;28;20039;-64
2023/12/31 00:43:11;;;;;;;5.38;2.95;;;;;;;;;;5111487;28;20040;-64
2023/12/31 00:45:37;;;;;;;6.88;2.90;;;;;;;;;;5111491;28;20123;-64
2023/12/31 00:48:03;;;;;;;6.35;3.13;;;;;;;;;;5110922;28;20486;-64
2023/12/31 00:50:29;;;;;;;4.88;2.85;;;;;;;;;;5111305;28;20043;-64
2023/12/31 00:52:55;;;;;;;4.35;3.13;;;;;;;;;;5090678;28;20036;-64
2023/12/31 00:55:21;;;;;;;4.93;2.95;;;;;;;;;;5090616;28;20496;-64
2023/12/31 00:57:47;;;;;;;4.82;2.80;;;;;;;;;;5089303;28;20052;-64
2023/12/31 01:00:13;;;;;;;5.60;2.40;;;;;;;;;;5089478;28;20407;-64
2023/12/31 01:02:39;;;;;;;6.93;2.78;;;;;;;;;;5090465;28;20483;-64
2023/12/31 01:05:05;;;;;;;5.57;3.03;;;;;;;;;;5090693;28;20036;-64
2023/12/31 01:07:31;;;;;;;5.30;2.40;;;;;;;;;;5089171;28;20478;-64
2023/12/31 01:09:57;;;;;;;4.13;2.60;;;;;;;;;;5090276;28;20032;-64
2023/12/31 01:12:23;;;;;;;5.07;2.70;;;;;;;;;;5090605;28;20036;-64
2023/12/31 01:14:49;;;;;;;5.28;2.65;;;;;;;;;;5089201;28;20074;-64
2023/12/31 01:17:15;;;;;;;4.35;2.42;;;;;;;;;;5090142;28;20043;-64
2023/12/31 01:19:41;;;;;;;4.15;2.40;;;;;;;;;;5102313;28;20047;-64
2023/12/31 01:22:07;;;;;;;4.10;2.20;;;;;;;;;;5110622;28;20039;-64
2023/12/31 01:24:33;;;;;;;4.78;2.50;;;;;;;;;;5110326;28;20050;-64
2023/12/31 01:26:59;;;;;;;4.10;2.42;;;;;;;;;;5092160;28;20040;-64
2023/12/31 01:29:25;;;;;;;5.47;2.55;;;;;;;;;;5090196;28;20478;-64
2023/12/31 01:31:51;;;;;;;4.38;2.30;;;;;;;;;;5090253;28;20045;-64
2023/12/31 01:34:17;;;;;;;3.17;2.00;;;;;;;;;;5090337;28;20128;-64
2023/12/31 01:36:43;;;;;;;3.88;2.20;;;;;;;;;;5089896;28;20555;-64
2023/12/31 01:39:09;;;;;;;5.32;2.30;;;;;;;;;;5088030;28;20048;-64
2023/12/31 01:41:35;;;;;;;4.65;2.13;;;;;;;;;;5088943;28;20036;-64
2023/12/31 01:44:06;;;;;;;3.28;1.85;;;;;;;;;;5090309;28;20036;-64
2023/12/31 01:46:32;;;;;;;5.00;2.50;;;;;;;;;;5088222;28;20228;-64
2023/12/31 01:49:00;;;;;;;2.95;2.13;;;;;;;;;;5088681;28;20406;-64
2023/12/31 01:51:28;;;;;;;2.63;2.05;;;;;;;;;;5088829;28;20098;-64
2023/12/31 01:53:56;;;;;;;3.60;2.03;;;;;;;;;;5089525;28;20355;-64
2023/12/31 01:56:22;;;;;;;2.85;2.10;;;;;;;;;;5071575;28;20055;-64
2023/12/31 01:58:48;;;;;;;2.10;1.85;;;;;;;;;;5089369;28;20059;-64
2023/12/31 02:01:15;;;;;;;4.05;2.17;;;;;;;;;;5089510;28;20101;-64
2023/12/31 02:03:41;;;;;;;2.88;2.30;;;;;;;;;;5089902;28;20047;-64
2023/12/31 02:06:07;;;;;;;3.22;2.25;;;;;;;;;;5088703;28;20239;-64
2023/12/31 02:08:33;;;;;;;3.60;1.98;;;;;;;;;;5087775;28;20047;-64
2023/12/31 02:10:59;;;;;;;4.28;1.95;;;;;;;;;;5088247;28;20052;-64
2023/12/31 02:13:25;;;;;;;3.03;2.38;;;;;;;;;;5089794;28;20039;-64
2023/12/31 02:15:53;;;;;;;4.50;2.10;;;;;;;;;;5089377;28;20040;-64
2023/12/31 02:18:19;;;;;;;2.72;2.03;;;;;;;;;;5089801;28;20044;-64
2023/12/31 02:20:45;;;;;;;4.45;1.75;;;;;;;;;;5109775;28;20118;-64
2023/12/31 02:23:11;;;;;;;4.60;2.03;;;;;;;;;;5109719;28;20088;-64
2023/12/31 02:25:42;;;;;;;5.15;2.47;;;;;;;;;;5101611;28;20036;-64
2023/12/31 02:28:15;;;;;;;4.30;2.20;;;;;;;;;;5089611;28;20083;-64
2023/12/31 02:30:41;;;;;;;5.30;2.08;;;;;;;;;;5089187;28;20115;-64
2023/12/31 02:33:07;;;;;;;3.00;2.33;;;;;;;;;;5089726;28;20036;-64
2023/12/31 02:35:33;;;;;;;2.83;1.90;;;;;;;;;;5089561;28;20092;-64
2023/12/31 02:37:59;;;;;;;3.80;2.00;;;;;;;;;;5089251;28;20452;-64
2023/12/31 02:40:25;;;;;;;3.08;1.92;;;;;;;;;;5087804;28;20398;-64
2023/12/31 02:42:51;;;;;;;4.20;1.95;;;;;;;;;;5089313;28;20036;-64
2023/12/31 02:45:17;;;;;;;4.07;2.13;;;;;;;;;;5087628;28;20125;-64
2023/12/31 02:47:43;;;;;;;2.90;2.10;;;;;;;;;;5089390;28;20486;-64
2023/12/31 02:50:09;;;;;;;3.80;2.30;;;;;;;;;;5089098;28;20048;-64
2023/12/31 02:52:35;;;;;;;5.45;2.45;;;;;;;;;;5088988;28;20040;-64
2023/12/31 02:55:01;;;;;;;4.82;2.30;;;;;;;;;;5087764;28;20294;-64
2023/12/31 02:57:27;;;;;;;4.32;2.53;;;;;;;;;;5089186;28;20139;-64
2023/12/31 02:59:53;;;;;;;3.25;2.50;;;;;;;;;;5088802;28;20048;-64
2023/12/31 03:02:19;;;;;;;4.43;2.13;;;;;;;;;;5089023;28;20131;-64
2023/12/31 03:04:45;;;;;;;3.70;2.33;;;;;;;;;;5089051;28;20119;-64
2023/12/31 03:07:11;;;;;;;3.20;1.90;;;;;;;;;;5088983;28;20040;-64
2023/12/31 03:09:37;;;;;;;2.90;2.25;;;;;;;;;;5088994;28;20040;-64
2023/12/31 03:12:04;;;;;;;4.55;2.50;;;;;;;;;;5087657;28;20075;-64
2023/12/31 03:14:30;;;;;;;3.95;2.10;;;;;;;;;;5089219;28;20051;-64
2023/12/31 03:16:57;;;;;;;5.70;2.35;;;;;;;;;;5088591;28;20438;-64
2023/12/31 03:19:23;;;;;;;3.63;2.13;;;;;;;;;;5097925;28;20451;-64
2023/12/31 03:21:49;;;;;;;4.05;2.05;;;;;;;;;;5109379;28;20297;-64
2023/12/31 03:24:17;;;;;;;3.70;2.35;;;;;;;;;;5112755;28;20474;-64
2023/12/31 03:26:43;;;;;;;3.10;2.20;;;;;;;;;;5096830;28;20101;-64
2023/12/31 03:29:09;;;;;;;2.33;1.80;;;;;;;;;;5092321;28;20055;-64
2023/12/31 03:31:35;;;;;;;3.90;2.00;;;;;;;;;;5092295;28;20036;-64
2023/12/31 03:34:01;;;;;;;2.15;1.85;;;;;;;;;;5092608;28;20050;-64
2023/12/31 03:36:27;;;;;;;3.85;1.85;;;;;;;;;;5092611;28;20192;-64
2023/12/31 03:38:54;;;;;;;3.50;1.70;;;;;;;;;;5091873;28;20491;-64
2023/12/31 03:41:20;;;;;;;3.90;2.13;;;;;;;;;;5092428;28;20119;-64
2023/12/31 03:43:46;;;;;;;3.88;1.85;;;;;;;;;;5090860;28;20478;-64
2023/12/31 03:46:12;;;;;;;2.55;1.50;;;;;;;;;;5091979;28;20065;-64
2023/12/31 03:48:38;;;;;;;3.65;2.00;;;;;;;;;;5092066;28;20040;-64
2023/12/31 03:51:05;;;;;;;2.25;2.05;;;;;;;;;;5092218;28;20513;-64
2023/12/31 03:53:31;;;;;;;2.90;1.95;;;;;;;;;;5091822;28;20043;-64
2023/12/31 03:55:57;;;;;;;2.08;1.88;;;;;;;;;;5092496;28;20097;-64
2023/12/31 03:58:23;;;;;;;4.47;2.40;;;;;;;;;;5091599;28;20519;-64
2023/12/31 04:00:49;;;;;;;3.28;1.95;;;;;;;;;;5090133;28;20058;-64
2023/12/31 04:03:15;;;;;;;3.13;2.05;;;;;;;;;;5091787;28;20402;-64
2023/12/31 04:05:41;;;;;;;3.08;2.15;;;;;;;;;;5091946;28;20044;-64
2023/12/31 04:08:07;;;;;;;3.85;2.20;;;;;;;;;;5091420;28;20040;-64
2023/12/31 04:10:33;;;;;;;3.58;1.90;;;;;;;;;;5091755;28;20036;-64
2023/12/31 04:12:59;;;;;;;4.32;2.20;;;;;;;;;;5090235;28;20530;-64
2023/12/31 04:15:25;;;;;;;2.90;2.20;;;;;;;;;;5091193;28;20079;-64
2023/12/31 04:17:52;;;;;;;4.25;2.30;;;;;;;;;;5091674;28;20437;-64
2023/12/31 04:20:18;;;;;;;2.97;2.10;;;;;;;;;;5108292;28;20062;-64
2023/12/31 04:22:44;;;;;;;3.13;2.55;;;;;;;;;;5111633;28;20031;-64
2023/12/31 04:25:10;;;;;;;4.57;2.50;;;;;;;;;;5108665;28;20032;-64
2023/12/31 04:27:38;;;;;;;4.07;2.30;;;;;;;;;;5091844;28;20058;-64
2023/12/31 04:30:06;;;;;;;3.22;2.20;;;;;;;;;;5091197;28;20075;-64
2023/12/31 04:32:32;;;;;;;3.78;2.30;;;;;;;;;;5091481;28;20061;-65
2023/12/31 04:34:58;;;;;;;4.95;2.55;;;;;;;;;;5091238;28;20523;-65
2023/12/31 04:37:24;;;;;;;4.15;2.15;;;;;;;;;;5090712;28;20089;-65
2023/12/31 04:39:50;;;;;;;3.50;2.30;;;;;;;;;;5089549;28;20498;-65
2023/12/31 04:42:16;;;;;;;3.97;2.38;;;;;;;;;;5089756;28;20040;-65
2023/12/31 04:44:42;;;;;;;4.90;2.00;;;;;;;;;;5090795;28;20039;-65
2023/12/31 04:47:08;;;;;;;2.85;2.17;;;;;;;;;;5091031;28;20036;-65
2023/12/31 04:49:34;;;;;;;5.15;2.45;;;;;;;;;;5091130;28;20050;-67
2023/12/31 04:52:00;;;;;;;3.33;2.28;;;;;;;;;;5090829;28;20048;-67
2023/12/31 04:54:26;;;;;;;2.75;2.00;;;;;;;;;;5092167;28;20455;-67
2023/12/31 04:56:52;;;;;;;4.40;2.28;;;;;;;;;;5092098;28;20429;-67
2023/12/31 04:59:18;;;;;;;2.70;2.22;;;;;;;;;;5091902;28;20178;-67
2023/12/31 05:01:44;;;;;;;2.22;2.03;;;;;;;;;;5092267;28;20059;-67
2023/12/31 05:04:10;;;;;;;3.58;2.45;;;;;;;;;;5092237;28;20467;-67
2023/12/31 05:06:36;;;;;;;2.88;2.22;;;;;;;;;;5090687;28;20072;-67
2023/12/31 05:09:03;;;;;;;4.78;2.35;;;;;;;;;;5091908;28;20048;-67
2023/12/31 05:11:29;;;;;;;4.57;2.53;;;;;;;;;;5092158;28;20533;-67
2023/12/31 05:13:56;;;;;;;5.45;2.10;;;;;;;;;;5091758;28;20040;-67
2023/12/31 05:16:23;;;;;;;3.63;1.98;;;;;;;;;;5092216;28;20044;-67
2023/12/31 05:18:53;;;;;;;7.38;2.53;;;;;;;;;;5096327;28;20123;-67
2023/12/31 05:21:20;;;;;;;4.10;2.30;;;;;;;;;;5112116;28;20044;-67
2023/12/31 05:23:46;;;;;;;4.55;2.33;;;;;;;;;;5112136;28;20122;-67
2023/12/31 05:26:12;;;;;;;2.78;2.17;;;;;;;;;;5100240;28;20109;-67
2023/12/31 05:28:38;;;;;;;4.90;2.28;;;;;;;;;;5091309;28;20048;-67
2023/12/31 05:31:04;;;;;;;4.88;2.40;;;;;;;;;;5091812;28;20097;-65
2023/12/31 05:33:30;;;;;;;4.30;2.47;;;;;;;;;;5091869;28;20039;-64
2023/12/31 05:35:56;;;;;;;3.15;2.47;;;;;;;;;;5089979;28;20078;-64
2023/12/31 05:38:22;;;;;;;2.97;2.30;;;;;;;;;;5090100;28;20616;-64
2023/12/31 05:40:48;;;;;;;4.50;2.20;;;;;;;;;;5091657;28;20036;-64
2023/12/31 05:43:14;;;;;;;3.20;2.10;;;;;;;;;;5091361;28;20036;-64
2023/12/31 05:45:40;;;;;;;4.88;2.40;;;;;;;;;;5091029;28;20102;-64
2023/12/31 05:48:07;;;;;;;2.33;2.00;;;;;;;;;;5091660;28;20036;-64
2023/12/31 05:50:33;;;;;;;3.35;2.05;;;;;;;;;;5091153;28;20435;-64
2023/12/31 05:52:59;;;;;;;4.00;2.47;;;;;;;;;;5091626;28;20560;-64
2023/12/31 05:55:25;;;;;;;3.78;2.28;;;;;;;;;;5090343;28;20057;-64
2023/12/31 05:57:51;;;;;;;4.50;1.92;;;;;;;;;;5090812;28;20059;-64
2023/12/31 06:00:17;;;;;;;2.78;1.92;;;;;;;;;;5091236;28;20044;-64
2023/12/31 06:02:43;;;;;;;4.07;2.83;;;;;;;;;;5090158;28;20040;-64
2023/12/31 06:05:09;;;;;;;5.35;2.10;;;;;;;;;;5089775;28;20531;-64
2023/12/31 06:07:36;;;;;;;3.45;2.30;;;;;;;;;;5091044;28;20119;-64
2023/12/31 06:10:03;;;;;;;2.55;2.35;;;;;;;;;;5091213;28;20504;-64
2023/12/31 06:12:31;;;;;;;3.22;2.35;;;;;;;;;;5090750;28;20050;-64
2023/12/31 06:14:59;;;;;;;3.15;2.50;;;;;;;;;;5091184;28;20036;-64
2023/12/31 06:17:26;;;;;;;3.08;2.55;;;;;;;;;;5091025;28;20040;-64
2023/12/31 06:19:52;;;;;;;3.70;2.60;;;;;;;;;;5102284;28;20050;-64
2023/12/31 06:22:18;;;;;;;4.40;2.75;;;;;;;;;;5110044;28;20446;-64
2023/12/31 06:24:44;;;;;;;3.78;2.45;;;;;;;;;;5111498;28;20038;-64
2023/12/31 06:27:11;;;;;;;4.65;2.78;;;;;;;;;;5090810;28;20669;-64
2023/12/31 06:29:37;;;;;;;6.68;2.58;;;;;;;;;;5091081;28;20803;-64
2023/12/31 06:32:03;;;;;;;4.95;2.65;;;;;;;;;;5091137;28;20051;-64
2023/12/31 06:34:29;;;;;;;2.92;2.35;;;;;;;;;;5090834;28;20424;-64
2023/12/31 06:36:55;;;;;;;4.45;2.53;;;;;;;;;;5089447;28;20383;-64
2023/12/31 06:39:21;;;;;;;4.35;2.65;;;;;;;;;;5090830;28;20466;-64
2023/12/31 06:41:47;;;;;;;3.17;2.55;;;;;;;;;;5091068;28;20752;-64
2023/12/31 06:44:13;;;;;;;5.57;2.70;;;;;;;;;;5090471;28;20039;-64
2023/12/31 06:46:39;;;;;;;4.57;2.70;;;;;;;;;;5090987;28;20093;-64
2023/12/31 06:49:06;;;;;;;5.03;3.50;;;;;;;;;;5090799;28;20040;-64
2023/12/31 06:51:32;;;;;;;5.15;2.70;;;;;;;;;;5090527;28;20184;-64
2023/12/31 06:53:58;;;;;;;5.50;2.70;;;;;;;;;;5090951;28;20044;-64
2023/12/31 06:56:24;;;;;;;3.80;2.75;;;;;;;;;;5090644;28;20059;-64
2023/12/31 06:58:50;;;;;;;2.80;2.30;;;;;;;;;;5093312;28;20125;-64
2023/12/31 07:01:16;;;;;;;4.35;2.83;;;;;;;;;;5094725;28;20075;-64
2023/12/31 07:03:45;;;;;;;6.13;2.70;;;;;;;;;;5094658;28;20459;-64
2023/12/31 07:06:11;;;;;;;4.80;2.90;;;;;;;;;;5094234;28;20051;-64
2023/12/31 07:08:37;;;;;;;3.92;2.80;;;;;;;;;;5094459;28;20044;-64
2023/12/31 07:11:04;;;;;;;4.50;2.63;;;;;;;;;;5094487;28;20040;-64
2023/12/31 07:13:30;;;;;;;4.40;2.97;;;;;;;;;;5093707;28;20036;-64
2023/12/31 07:15:59;;;;;;;4.35;2.80;;;;;;;;;;5094241;28;20040;-64
2023/12/31 07:18:25;;;;;;;4.85;2.70;;;;;;;;;;5094927;28;20058;-64
2023/12/31 07:20:54;;;;;;;4.78;2.60;;;;;;;;;;5114355;28;20040;-64
2023/12/31 07:23:20;;;;;;;3.33;2.72;;;;;;;;;;5114576;27;20043;-64
2023/12/31 07:25:47;;;;;;;4.68;2.72;;;;;;;;;;5105960;28;20115;-64
2023/12/31 07:28:13;;;;;;;3.92;2.58;;;;;;;;;;5093805;28;20123;-64
2023/12/31 07:30:43;;;;;;;4.60;2.92;;;;;;;;;;5093726;28;20044;-64
2023/12/31 07:33:09;;;;;;;4.82;2.70;;;;;;;;;;5094082;28;20047;-67
2023/12/31 07:35:36;;;;;;;5.47;2.35;;;;;;;;;;5093687;28;20066;-67
2023/12/31 07:38:08;;;;;;;4.55;2.75;;;;;;;;;;5093677;28;20052;-67
2023/12/31 07:40:35;;;;;;;3.30;2.33;;;;;;;;;;5093714;28;20093;-67
2023/12/31 07:43:02;;;;;;;2.88;2.40;;;;;;;;;;5093167;28;20119;-67
2023/12/31 07:45:28;;;;;;;3.60;2.50;;;;;;;;;;5093935;28;20099;-67
2023/12/31 07:47:54;;;;;;;3.00;2.45;;;;;;;;;;5093769;28;20040;-67
2023/12/31 07:50:20;;;;;;;5.30;2.85;;;;;;;;;;5093360;28;20379;-67
2023/12/31 07:52:47;;;;;;;3.80;2.78;;;;;;;;;;5092192;28;20051;-67
2023/12/31 07:55:13;;;;;;;4.70;2.65;;;;;;;;;;5092041;28;20039;-67
2023/12/31 07:57:39;;;;;;;3.47;2.70;;;;;;;;;;5091754;28;20052;-67
2023/12/31 08:00:05;;;;;;;4.53;2.75;;;;;;;;;;5093162;28;20048;-67
2023/12/31 08:02:31;;;;;;;6.00;2.97;;;;;;;;;;5093616;28;20063;-67
2023/12/31 08:04:57;;;;;;;4.07;2.33;;;;;;;;;;5093136;28;20490;-67
2023/12/31 08:07:23;;;;;;;5.05;2.78;;;;;;;;;;5093065;28;20036;-65
2023/12/31 08:09:49;;;;;;;3.08;2.40;;;;;;;;;;5092716;28;20052;-64
2023/12/31 08:12:15;;;;;;;4.38;2.50;;;;;;;;;;5091453;28;20379;-64
2023/12/31 08:14:42;;;;;;;3.53;2.55;;;;;;;;;;5093275;28;20040;-64
2023/12/31 08:17:08;;;;;;;4.60;2.50;;;;;;;;;;5093329;28;20638;-64
2023/12/31 08:19:34;;;;;;;3.38;2.30;;;;;;;;;;5101850;28;20043;-64
2023/12/31 08:22:00;;;;;;;3.92;2.63;;;;;;;;;;5113609;28;20032;-64
2023/12/31 08:24:26;;;;;;;3.60;2.42;;;;;;;;;;5113500;28;20040;-64
2023/12/31 08:26:52;;;;;;;3.22;2.58;;;;;;;;;;5095149;28;20531;-64
2023/12/31 08:29:18;;;;;;;3.95;2.80;;;;;;;;;;5092429;28;20036;-64
2023/12/31 08:31:52;;;;;;;5.65;2.95;;;;;;;;;;5092581;28;20040;-64
2023/12/31 08:34:19;;;;;;;4.40;2.65;;;;;;;;;;5090715;28;20127;-64
2023/12/31 08:36:45;;;;;;;3.90;2.47;;;;;;;;;;5092421;28;20664;-64
2023/12/31 08:39:11;;;;;;;4.75;2.80;;;;;;;;;;5090857;28;20474;-64
2023/12/31 08:41:37;;;;;;;3.70;3.15;;;;;;;;;;5092086;28;20036;-64
2023/12/31 08:44:03;;;;;;;5.35;2.80;;;;;;;;;;5092779;28;20618;-64
2023/12/31 08:46:30;;;;;;;6.05;2.83;;;;;;;;;;5092320;28;20047;-64
2023/12/31 08:48:56;;;;;;;4.60;3.00;;;;;;;;;;5090639;28;20051;-64
2023/12/31 08:51:22;;;;;;;4.35;2.85;;;;;;;;;;5092433;28;20040;-64
2023/12/31 08:53:50;;;;;;;4.20;2.83;;;;;;;;;;5092351;28;20040;-64
2023/12/31 08:56:16;;;;;;;3.30;2.42;;;;;;;;;;5092143;28;20481;-64
2023/12/31 08:58:42;;;;;;;4.13;2.80;;;;;;;;;;5091912;28;20059;-64
2023/12/31 09:01:08;;;;;;;3.40;2.70;;;;;;;;;;5092243;28;20644;-64
2023/12/31 09:03:34;;;;;;;4.25;3.08;;;;;;;;;;5092016;28;20115;-64
2023/12/31 09:06:00;;;;;;;3.88;2.65;;;;;;;;;;5092266;28;20109;-64
2023/12/31 09:08:26;;;;;;;5.05;3.05;;;;;;;;;;5092043;28;20040;-64
2023/12/31 09:10:54;;;;;;;4.68;2.65;;;;;;;;;;5091730;28;20502;-64
2023/12/31 09:13:22;;;;;;;4.78;2.60;;;;;;;;;;5090478;28;20371;-64
2023/12/31 09:15:48;;;;;;;5.82;2.75;;;;;;;;;;5091818;28;20418;-64
2023/12/31 09:18:16;;;;;;;4.45;2.70;;;;;;;;;;5091760;28;20449;-64
2023/12/31 09:20:42;;;;;;;4.75;3.03;;;;;;;;;;5111039;28;20075;-64
2023/12/31 09:23:09;;;;;;;9.85;6.72;;;;;;;;;;5112179;28;20064;-64
2023/12/31 09:25:35;;;;;;;7.35;3.90;;;;;;;;;;5105303;28;20036;-64
2023/12/31 09:28:01;;;;;;;4.97;2.88;;;;;;;;;;5090665;28;20043;-67
2023/12/31 09:30:27;;;;;;;4.45;2.83;;;;;;;;;;5091677;28;20125;-65
2023/12/31 09:32:53;;;;;;;4.10;2.63;;;;;;;;;;5091456;28;20051;-65
2023/12/31 09:35:19;;;;;;;6.80;2.78;;;;;;;;;;5091648;28;20055;-65
2023/12/31 09:37:45;;;;;;;3.70;3.22;;;;;;;;;;5091836;28;20035;-65
2023/12/31 09:40:12;;;;;;;3.72;2.67;;;;;;;;;;5089457;28;20368;-65
2023/12/31 09:42:38;;;;;;;3.95;3.00;;;;;;;;;;5090483;28;20044;-65
2023/12/31 09:45:07;;;;;;;6.00;3.40;;;;;;;;;;5091771;28;20048;-65
2023/12/31 09:47:34;;;;;;;3.50;2.72;;;;;;;;;;5091024;28;20039;-65
2023/12/31 09:50:01;;;;;;;4.90;3.25;;;;;;;;;;5091323;28;20051;-65
2023/12/31 09:52:30;;;;;;;4.28;3.13;;;;;;;;;;5091584;28;20075;-65
2023/12/31 09:54:56;;;;;;;4.75;3.17;;;;;;;;;;5091190;28;20528;-65
2023/12/31 09:57:22;;;;;;;7.40;3.03;;;;;;;;;;5091164;28;20052;-65
2023/12/31 09:59:50;;;;;;;4.55;3.10;;;;;;;;;;5091153;28;20040;-65
2023/12/31 10:02:23;;;;;;;5.03;3.40;;;;;;;;;;5091054;28;20040;-65
2023/12/31 10:04:53;;;;;;;5.45;3.78;;;;;;;;;;5091210;28;20051;-65
2023/12/31 10:07:22;;;;;;;8.98;4.38;;;;;;;;;;5089964;28;20580;-65
2023/12/31 10:09:49;;;;;;;7.57;5.10;;;;;;;;;;5090959;28;20040;-65
2023/12/31 10:12:15;;;;;;;7.28;4.53;;;;;;;;;;5089789;28;20452;-65
2023/12/31 10:14:41;;;;;;;8.75;4.80;;;;;;;;;;5091230;28;20063;-65
2023/12/31 10:17:08;;;;;;;6.55;4.95;;;;;;;;;;5090887;28;20592;-65
2023/12/31 10:19:34;;;;;;;26.83;17.98;;;;;;;;;;5101489;28;20043;-65
2023/12/31 10:22:00;;;;;;;14.82;10.18;;;;;;;;;;5110144;28;20059;-65
2023/12/31 10:24:29;;;;;;;11.65;6.78;;;;;;;;;;5111059;28;20118;-65
2023/12/31 10:27:02;;;;;;;7.65;5.50;;;;;;;;;;5093231;28;20067;-65
2023/12/31 10:29:28;;;;;;;6.40;4.60;;;;;;;;;;5088329;28;20056;-65
2023/12/31 10:31:54;;;;;;;5.93;4.00;;;;;;;;;;5090978;28;20047;-65
2023/12/31 10:34:20;;;;;;;7.13;4.45;;;;;;;;;;5093538;28;20167;-65
2023/12/31 10:36:47;;;;;;;8.45;5.03;;;;;;;;;;5092220;28;20067;-65
2023/12/31 10:39:28;;;;;;;5.75;4.35;;;;;;;;;;5092904;28;20040;-65
2023/12/31 10:42:04;;;;;;;8.18;3.95;;;;;;;;;;5093303;28;20032;-65
2023/12/31 10:44:34;;;;;;;6.57;3.83;;;;;;;;;;5093693;28;20036;-65
2023/12/31 10:47:04;;;;;;;8.52;4.57;;;;;;;;;;5093089;28;20043;-65
2023/12/31 10:49:31;;;;;;;4.93;4.10;;;;;;;;;;5093459;28;20094;-65
2023/12/31 10:52:00;;;;;;;6.43;3.88;;;;;;;;;;5093583;28;20040;-65
2023/12/31 10:54:38;;;;;;;5.00;3.92;;;;;;;;;;5093065;28;20067;-65
2023/12/31 10:57:06;;;;;;;7.78;4.20;;;;;;;;;;5091812;28;20041;-65
2023/12/31 10:59:34;;;;;;;5.45;3.92;;;;;;;;;;5091935;28;20055;-65
2023/12/31 11:02:00;;;;;;;5.55;3.92;;;;;;;;;;5092972;28;20195;-65
2023/12/31 11:04:26;;;;;;;5.85;3.72;;;;;;;;;;5093235;28;20047;-65
2023/12/31 11:06:54;;;;;;;6.57;4.50;;;;;;;;;;5093212;28;20040;-65
2023/12/31 11:09:21;;;;;;;5.72;4.38;;;;;;;;;;5092478;28;20059;-65
2023/12/31 11:11:47;;;;;;;7.72;4.22;;;;;;;;;;5093035;28;20040;-65
2023/12/31 11:14:15;;;;;;;5.72;3.88;;;;;;;;;;5092776;28;20051;-65
2023/12/31 11:16:41;;;;;;;5.18;3.90;;;;;;;;;;5092620;28;20050;-65
2023/12/31 11:19:33;;;;;;;6.05;3.60;;;;;;;;;;5099549;28;20474;-65
2023/12/31 11:22:32;;;;;;;5.38;3.25;;;;;;;;;;5073694;28;20052;-65
2023/12/31 11:25:00;;;;;;;4.72;3.28;;;;;;;;;;5065969;28;20393;-65
2023/12/31 11:27:31;;;;;;;4.63;3.03;;;;;;;;;;5092663;28;20039;-65
2023/12/31 11:29:58;;;;;;;4.10;2.72;;;;;;;;;;5092265;28;20044;-65
2023/12/31 11:32:24;;;;;;;5.05;2.80;;;;;;;;;;5092602;28;20048;-65
2023/12/31 11:34:52;;;;;;;5.38;3.03;;;;;;;;;;5092564;28;20119;-65
2023/12/31 11:37:17;;;;;;;7.25;4.30;;;;;;;;;;5092477;28;20129;-65
2023/12/31 11:39:47;;;;;;;4.65;3.95;;;;;;;;;;5091757;28;20072;-65
2023/12/31 11:42:15;;;;;;;3.55;3.08;;;;;;;;;;5091038;28;20117;-65
2023/12/31 11:44:43;;;;;;;3.55;1.98;;;;;;;;;;5091572;28;20071;-65
2023/12/31 11:47:15;;;;;;;3.17;1.67;;;;;;;;;;5091718;28;20151;-65
2023/12/31 11:49:45;;;;;;;4.25;2.40;;;;;;;;;;5092196;28;20521;-65
2023/12/31 11:52:11;;;;;;;3.78;2.17;;;;;;;;;;5092366;28;20075;-65
2023/12/31 11:54:39;;;;;;;3.55;1.48;;;;;;;;;;5090257;28;20048;-65
2023/12/31 11:57:05;;;;;;;2.40;1.30;;;;;;;;;;5091821;28;20130;-65
2023/12/31 11:59:35;;;;;;;2.97;1.20;;;;;;;;;;5092011;28;20052;-65
2023/12/31 12:02:01;;;;;;;2.78;1.10;;;;;;;;;;5091697;28;20068;-65
2023/12/31 12:04:27;;;;;;;2.60;1.23;;;;;;;;;;5092178;28;20522;-65
2023/12/31 12:06:53;;;;;;;2.78;1.83;;;;;;;;;;5091730;28;20069;-65
2023/12/31 12:09:26;;;;;;;2.55;1.92;;;;;;;;;;5091342;28;20039;-65
2023/12/31 12:11:52;;;;;;;1.80;1.55;;;;;;;;;;5090650;28;20044;-65
2023/12/31 12:14:18;;;;;;;2.38;1.30;;;;;;;;;;5091850;28;20097;-65
2023/12/31 12:16:45;;;;;;;2.65;1.67;;;;;;;;;;5089883;28;20402;-65
2023/12/31 12:19:11;;;;;;;4.47;2.00;;;;;;;;;;5098935;28;20039;-65
2023/12/31 12:21:37;;;;;;;5.80;2.47;;;;;;;;;;5111914;28;20096;-65
2023/12/31 12:24:04;;;;;;;4.57;3.20;;;;;;;;;;5111619;28;20122;-65
2023/12/31 12:26:30;;;;;;;3.78;1.90;;;;;;;;;;5096007;28;20056;-65
2023/12/31 12:28:57;;;;;;;2.17;1.40;;;;;;;;;;5091397;28;20071;-65
2023/12/31 12:31:23;;;;;;;3.05;1.95;;;;;;;;;;5090877;28;20074;-65
2023/12/31 12:33:53;;;;;;;3.03;1.80;;;;;;;;;;5091501;28;20062;-65
2023/12/31 12:36:19;;;;;;;4.70;3.45;;;;;;;;;;5090263;28;20040;-65
2023/12/31 12:38:48;;;;;;;3.53;2.10;;;;;;;;;;5091078;28;20040;-65
2023/12/31 12:41:19;;;;;;;6.60;3.10;;;;;;;;;;5091306;28;20076;-65
2023/12/31 12:43:45;;;;;;;4.88;4.05;;;;;;;;;;5091334;28;20118;-65
2023/12/31 12:46:11;;;;;;;6.05;4.20;;;;;;;;;;5090680;28;20120;-65
2023/12/31 12:48:56;;;;;;;7.28;4.03;;;;;;;;;;5090972;28;20518;-65
2023/12/31 12:51:22;;;;;;;9.43;5.93;;;;;;;;;;5091155;28;20493;-65
2023/12/31 12:53:48;;;;;;;5.55;3.35;;;;;;;;;;5091021;28;20036;-65
2023/12/31 12:56:14;;;;;;;4.10;3.40;;;;;;;;;;5091150;28;20051;-65
2023/12/31 12:58:40;;;;;;;5.30;3.40;;;;;;;;;;5090486;28;20402;-65
2023/12/31 13:01:06;;;;;;;5.70;4.03;;;;;;;;;;5090266;28;20059;-65
2023/12/31 13:03:33;;;;;;;6.88;4.65;;;;;;;;;;5089279;28;20393;-65
2023/12/31 13:05:59;;;;;;;7.25;4.43;;;;;;;;;;5089220;28;20036;-65
2023/12/31 13:08:25;;;;;;;3.15;2.20;;;;;;;;;;5089987;28;20482;-65
2023/12/31 13:10:51;;;;;;;2.92;1.98;;;;;;;;;;5090814;28;20059;-65
2023/12/31 13:13:17;;;;;;;3.88;2.65;;;;;;;;;;5090757;28;20343;-65
2023/12/31 13:15:43;;;;;;;3.47;1.58;;;;;;;;;;5090265;28;20110;-65
2023/12/31 13:18:13;;;;;;;4.55;2.50;;;;;;;;;;5090546;28;20050;-65
2023/12/31 13:20:39;;;;;;;4.55;2.70;;;;;;;;;;5110079;28;20051;-65
2023/12/31 13:23:05;;;;;;;5.53;1.23;;;;;;;;;;5108991;28;20400;-65
2023/12/31 13:25:31;;;;;;;4.88;1.70;;;;;;;;;;5104678;28;20101;-65
2023/12/31 13:27:57;;;;;;;5.60;1.25;;;;;;;;;;5090423;28;20035;-65
2023/12/31 13:30:25;;;;;;;5.57;1.42;;;;;;;;;;5088522;28;20043;-65
2023/12/31 13:32:51;;;;;;;3.13;1.10;;;;;;;;;;5090415;28;20054;-65
2023/12/31 13:35:18;;;;;;;3.33;1.20;;;;;;;;;;5089071;28;20040;-65
2023/12/31 13:37:44;;;;;;;4.50;1.15;;;;;;;;;;5090016;28;20491;-65
2023/12/31 13:40:10;;;;;;;3.35;1.20;;;;;;;;;;5090209;28;20040;-65
2023/12/31 13:42:36;;;;;;;3.60;1.90;;;;;;;;;;5090173;28;20040;-65
2023/12/31 13:45:03;;;;;;;9.13;3.08;;;;;;;;;;5089916;28;20335;-65
2023/12/31 13:47:29;;;;;;;4.68;1.67;;;;;;;;;;5090056;28;20062;-65
2023/12/31 13:49:57;;;;;;;6.28;1.88;;;;;;;;;;5088372;28;20040;-65
2023/12/31 13:52:23;;;;;;;5.20;1.70;;;;;;;;;;5089688;28;20044;-65
2023/12/31 13:54:49;;;;;;;9.07;4.38;;;;;;;;;;5088946;28;20040;-65
2023/12/31 13:57:15;;;;;;;11.32;3.72;;;;;;;;;;5088451;28;20344;-65
2023/12/31 13:59:42;;;;;;;8.23;4.43;;;;;;;;;;5089432;28;20059;-65
2023/12/31 14:02:08;;;;;;;10.43;3.95;;;;;;;;;;5089822;28;20533;-65
2023/12/31 14:04:34;;;;;;;6.55;2.58;;;;;;;;;;5088615;28;20043;-65
2023/12/31 14:07:00;;;;;;;6.32;4.65;;;;;;;;;;5089052;28;20040;-65
2023/12/31 14:09:26;;;;;;;10.40;3.17;;;;;;;;;;5088060;28;20047;-65
2023/12/31 14:11:52;;;;;;;12.27;4.68;;;;;;;;;;5089901;28;20048;-65
2023/12/31 14:14:20;;;;;;;9.77;3.70;;;;;;;;;;5089776;28;20128;-65
2023/12/31 14:16:46;;;;;;;10.75;4.55;;;;;;;;;;5088653;28;20502;-65
2023/12/31 14:19:12;;;;;;;13.23;7.45;;;;;;;;;;5096946;28;20036;-65
2023/12/31 14:21:38;;;;;;;13.75;7.60;;;;;;;;;;5109762;28;20047;-65
2023/12/31 14:24:04;;;;;;;10.18;4.93;;;;;;;;;;5109969;28;20041;-65
2023/12/31 14:26:31;;;;;;;9.07;3.95;;;;;;;;;;5095652;28;20036;-65
2023/12/31 14:28:58;;;;;;;12.80;5.82;;;;;;;;;;5087634;28;20380;-65
2023/12/31 14:31:24;;;;;;;8.18;4.22;;;;;;;;;;5089676;28;20448;-65
2023/12/31 14:33:50;;;;;;;8.77;3.50;;;;;;;;;;5089709;28;20103;-65
2023/12/31 14:36:16;;;;;;;8.18;3.95;;;;;;;;;;5089325;28;20405;-65
2023/12/31 14:38:42;;;;;;;10.18;4.95;;;;;;;;;;5089108;28;20081;-65
2023/12/31 14:41:08;;;;;;;8.10;2.70;;;;;;;;;;5089499;28;20044;-65